Time;durP1;ratioP1;P1;durP2;ratioP2;P2;SDS_P1;SDS_P2;PMS_P1;PMS_P2;Temp;Humidity;BMP_temperature;BMP_pressure;BME280_temperature;BME280_humidity;BME280_pressure;Samples;Min_cycle;Max_cycle;Signal;HPM_P1;HPM_P2
2020/12/23 00:00:47;;;;;;;37.75;17.37;;;;;;;1.28;74.65;101847.48;1783331;79;28439;-58
2020/12/23 00:03:15;;;;;;;34.88;17.05;;;;;;;1.31;74.80;101850.05;1778744;79;25636;-58
2020/12/23 00:05:43;;;;;;;38.48;18.02;;;;;;;1.36;74.89;101847.23;1783863;79;25440;-58
2020/12/23 00:08:11;;;;;;;36.83;18.67;;;;;;;1.43;75.06;101849.23;1801650;79;26289;-58
2020/12/23 00:10:39;;;;;;;38.28;18.90;;;;;;;1.50;74.88;101853.42;1801384;79;26102;-58
2020/12/23 00:13:08;;;;;;;35.30;18.52;;;;;;;1.47;74.76;101834.50;1801251;79;28480;-58
2020/12/23 00:15:36;;;;;;;38.05;18.23;;;;;;;1.48;74.80;101828.25;1781959;79;25735;-58
2020/12/23 00:18:04;;;;;;;32.75;17.60;;;;;;;1.51;74.54;101833.47;1770225;79;25659;-58
2020/12/23 00:20:31;;;;;;;34.60;17.67;;;;;;;1.52;74.42;101830.37;1795906;79;25497;-57
2020/12/23 00:22:59;;;;;;;39.42;19.95;;;;;;;1.55;74.20;101826.27;1788573;79;25660;-58
2020/12/23 00:25:27;;;;;;;35.78;18.07;;;;;;;1.53;74.25;101826.77;1770183;79;28883;-58
2020/12/23 00:27:56;;;;;;;39.40;19.00;;;;;;;1.51;74.26;101829.48;1797424;79;25639;-57
2020/12/23 00:30:24;;;;;;;37.85;18.95;;;;;;;1.54;74.28;101833.81;1799437;79;25738;-58
2020/12/23 00:32:52;;;;;;;37.10;17.77;;;;;;;1.58;74.23;101833.25;1792111;79;26319;-58
2020/12/23 00:35:20;;;;;;;41.80;18.55;;;;;;;1.61;74.48;101839.78;1770385;79;25511;-57
2020/12/23 00:37:47;;;;;;;37.98;17.65;;;;;;;1.66;74.55;101836.54;1772789;79;26763;-57
2020/12/23 00:40:15;;;;;;;31.57;17.77;;;;;;;1.69;74.52;101837.30;1779777;79;25668;-57
2020/12/23 00:42:43;;;;;;;35.55;17.90;;;;;;;1.70;74.47;101828.39;1793832;79;25627;-57
2020/12/23 00:45:11;;;;;;;34.60;17.32;;;;;;;1.75;74.77;101825.58;1780502;79;26354;-58
2020/12/23 00:47:41;;;;;;;34.33;15.48;;;;;;;1.82;74.77;101821.81;1774078;79;27624;-58
2020/12/23 00:50:09;;;;;;;33.53;17.42;;;;;;;1.91;74.79;101817.95;1785024;79;28457;-57
2020/12/23 00:52:37;;;;;;;38.42;18.25;;;;;;;1.93;74.54;101819.25;1778358;79;25589;-58
2020/12/23 00:55:06;;;;;;;37.60;18.77;;;;;;;1.91;74.25;101813.13;1780843;79;25707;-58
2020/12/23 00:57:36;;;;;;;41.63;18.82;;;;;;;1.90;74.19;101812.23;1776440;79;26370;-57
2020/12/23 01:00:06;;;;;;;40.83;19.87;;;;;;;1.90;74.08;101806.94;1779134;79;25695;-57
2020/12/23 01:02:33;;;;;;;42.08;20.92;;;;;;;1.91;74.13;101795.40;1801154;79;28486;-58
2020/12/23 01:05:02;;;;;;;39.78;19.48;;;;;;;1.91;73.82;101793.22;1791779;79;26149;-58
2020/12/23 01:07:30;;;;;;;38.73;18.87;;;;;;;1.87;73.42;101789.34;1779104;79;25798;-58
2020/12/23 01:09:58;;;;;;;36.98;19.20;;;;;;;1.82;73.40;101783.79;1778910;80;25650;-57
2020/12/23 01:12:26;;;;;;;38.58;17.95;;;;;;;1.76;73.36;101781.36;1779336;79;25649;-57
2020/12/23 01:14:54;;;;;;;42.43;19.62;;;;;;;1.72;73.42;101776.63;1779127;79;27521;-58
2020/12/23 01:17:21;;;;;;;35.88;17.92;;;;;;;1.70;73.71;101776.66;1779070;79;25764;-58
2020/12/23 01:19:49;;;;;;;36.17;16.70;;;;;;;1.68;74.03;101778.53;1798727;79;25736;-58
2020/12/23 01:22:17;;;;;;;34.20;18.32;;;;;;;1.70;74.24;101765.20;1806085;79;26274;-58
2020/12/23 01:24:46;;;;;;;36.77;18.57;;;;;;;1.72;74.40;101769.52;1779061;79;25661;-57
2020/12/23 01:27:13;;;;;;;37.20;17.95;;;;;;;1.78;74.56;101753.84;1779105;79;26557;-57
2020/12/23 01:29:41;;;;;;;37.80;18.62;;;;;;;1.84;74.63;101757.59;1779260;79;26112;-57
2020/12/23 01:32:09;;;;;;;40.28;18.35;;;;;;;1.88;74.70;101748.62;1779242;79;25661;-58
2020/12/23 01:34:38;;;;;;;38.23;17.80;;;;;;;1.91;74.44;101743.66;1779077;79;26706;-57
2020/12/23 01:37:06;;;;;;;36.77;18.17;;;;;;;1.92;74.58;101736.09;1779133;79;25691;-58
2020/12/23 01:39:33;;;;;;;35.90;18.42;;;;;;;1.90;74.15;101737.94;1786753;79;27468;-57
2020/12/23 01:42:02;;;;;;;37.28;17.82;;;;;;;1.87;74.52;101732.29;1780708;79;25840;-57
2020/12/23 01:44:30;;;;;;;34.78;17.77;;;;;;;1.89;74.39;101732.22;1815988;77;25646;-57
2020/12/23 01:47:00;;;;;;;34.50;18.98;;;;;;;1.87;74.35;101731.44;1736706;82;25856;-58
2020/12/23 01:49:29;;;;;;;37.78;18.80;;;;;;;1.86;74.41;101737.19;1718910;82;25809;-57
2020/12/23 01:51:57;;;;;;;39.65;18.77;;;;;;;1.90;74.49;101726.47;1741682;80;27577;-58
2020/12/23 01:54:26;;;;;;;36.42;18.70;;;;;;;1.88;74.09;101720.75;1717972;80;25645;-58
2020/12/23 01:56:57;;;;;;;37.53;19.55;;;;;;;1.88;74.18;101721.23;1711916;83;25661;-58
2020/12/23 01:59:25;;;;;;;41.85;20.23;;;;;;;1.87;74.18;101719.02;1742782;80;25856;-58
2020/12/23 02:02:20;;;;;;;43.00;19.60;;;;;;;1.88;74.14;101721.23;1742679;80;25723;-58
2020/12/23 02:04:48;;;;;;;38.13;19.60;;;;;;;1.87;74.20;101718.17;1727229;79;28538;-58
2020/12/23 02:07:17;;;;;;;39.75;19.55;;;;;;;1.90;74.59;101713.20;1735868;79;25665;-58
2020/12/23 02:09:51;;;;;;;41.60;20.05;;;;;;;1.91;74.71;101710.48;1746825;79;25738;-58
2020/12/23 02:12:20;;;;;;;40.05;20.35;;;;;;;1.93;74.78;101712.63;1737667;81;26778;-58
2020/12/23 02:14:49;;;;;;;43.78;20.35;;;;;;;1.98;75.07;101712.45;1746161;80;25718;-57
2020/12/23 02:17:17;;;;;;;38.78;20.32;;;;;;;2.02;75.12;101706.98;1735560;81;27570;-58
2020/12/23 02:19:52;;;;;;;39.63;20.08;;;;;;;2.05;75.05;101706.46;1735886;81;25689;-57
2020/12/23 02:22:30;;;;;;;;;;;;;;;2.06;75.24;101703.73;1738383;81;25690;-58
2020/12/23 02:24:58;;;;;;;45.52;20.90;;;;;;;2.08;75.04;101699.69;1740549;81;27312;-57
2020/12/23 02:27:28;;;;;;;43.80;19.55;;;;;;;2.10;75.34;101698.73;1759758;81;25695;-57
2020/12/23 02:29:57;;;;;;;36.17;18.50;;;;;;;2.16;75.59;101690.52;1740939;80;28506;-58
2020/12/23 02:32:26;;;;;;;32.42;17.42;;;;;;;2.18;75.32;101691.78;1735597;81;25746;-57
2020/12/23 02:34:54;;;;;;;39.80;20.30;;;;;;;2.23;75.32;101688.95;1735467;82;25741;-57
2020/12/23 02:37:22;;;;;;;35.80;18.55;;;;;;;2.23;75.20;101683.20;1735499;82;25898;-57
2020/12/23 02:39:53;;;;;;;39.88;21.15;;;;;;;2.28;75.23;101687.00;1750044;81;25818;-56
2020/12/23 02:42:24;;;;;;;41.05;19.75;;;;;;;2.24;74.93;101684.89;1759618;81;27546;-57
2020/12/23 02:44:55;;;;;;;38.90;20.77;;;;;;;2.21;75.07;101685.48;1752923;81;25663;-57
2020/12/23 02:47:24;;;;;;;35.98;19.95;;;;;;;2.14;74.95;101684.87;1766116;79;26333;-58
2020/12/23 02:49:51;;;;;;;45.55;21.52;;;;;;;2.08;74.81;101690.40;1759277;81;26692;-57
2020/12/23 02:52:19;;;;;;;40.92;20.77;;;;;;;2.00;74.86;101689.38;1735926;79;25739;-57
2020/12/23 02:54:47;;;;;;;37.20;19.30;;;;;;;1.99;75.14;101681.87;1735683;81;27615;-57
2020/12/23 02:57:15;;;;;;;39.70;21.30;;;;;;;1.95;74.93;101695.31;1743801;81;25702;-58
2020/12/23 02:59:43;;;;;;;37.85;20.15;;;;;;;1.91;75.19;101691.05;1738036;81;25669;-57
2020/12/23 03:02:10;;;;;;;45.55;22.13;;;;;;;1.84;74.99;101689.09;1730817;81;26811;-58
2020/12/23 03:04:39;;;;;;;46.23;20.75;;;;;;;1.86;75.34;101689.42;1701715;82;25747;-57
2020/12/23 03:07:07;;;;;;;37.40;19.65;;;;;;;1.85;75.69;101682.86;1709142;82;28405;-58
2020/12/23 03:09:34;;;;;;;40.58;21.52;;;;;;;1.84;75.70;101694.39;1717472;82;25653;-57
2020/12/23 03:12:02;;;;;;;39.65;19.52;;;;;;;1.86;75.97;101693.88;1701859;82;25532;-57
2020/12/23 03:14:30;;;;;;;41.73;22.45;;;;;;;1.92;76.17;101688.33;1713954;82;26090;-57
2020/12/23 03:16:59;;;;;;;41.35;20.82;;;;;;;1.99;76.46;101686.32;1730694;82;25687;-57
2020/12/23 03:19:27;;;;;;;39.20;18.92;;;;;;;2.10;76.82;101685.91;1730581;82;27620;-57
2020/12/23 03:21:54;;;;;;;43.00;20.37;;;;;;;2.19;77.09;101674.48;1713731;82;25638;-57
2020/12/23 03:24:22;;;;;;;35.92;20.00;;;;;;;2.32;77.27;101668.23;1701793;82;25731;-57
2020/12/23 03:26:50;;;;;;;33.92;17.75;;;;;;;2.42;77.16;101666.06;1713228;82;25858;-57
2020/12/23 03:29:17;;;;;;;35.15;18.10;;;;;;;2.45;76.84;101666.39;1725040;82;25688;-57
2020/12/23 03:31:46;;;;;;;34.10;19.35;;;;;;;2.49;76.77;101658.23;1730622;82;28521;-57
2020/12/23 03:34:15;;;;;;;37.33;19.65;;;;;;;2.47;76.33;101664.06;1730537;82;25658;-58
2020/12/23 03:36:42;;;;;;;39.48;19.70;;;;;;;2.42;75.68;101661.23;1720645;82;25459;-57
2020/12/23 03:39:10;;;;;;;36.75;18.80;;;;;;;2.39;75.53;101666.65;1728368;82;25865;-57
2020/12/23 03:41:38;;;;;;;38.48;20.45;;;;;;;2.28;75.37;101663.10;1717901;82;25680;-57
2020/12/23 03:44:07;;;;;;;38.92;20.37;;;;;;;2.15;75.25;101656.94;1719279;82;27665;-57
2020/12/23 03:46:35;;;;;;;43.92;20.82;;;;;;;2.12;75.55;101657.05;1730532;82;25712;-57
2020/12/23 03:49:03;;;;;;;37.23;19.23;;;;;;;2.04;75.41;101657.80;1720968;82;25722;-56
2020/12/23 03:51:31;;;;;;;38.23;18.50;;;;;;;1.94;75.58;101656.42;1701595;84;26399;-57
2020/12/23 03:53:59;;;;;;;48.40;20.77;;;;;;;1.88;75.92;101662.38;1702837;82;26625;-57
2020/12/23 03:56:27;;;;;;;42.00;19.82;;;;;;;1.89;76.13;101667.20;1701796;82;27547;-58
2020/12/23 03:58:55;;;;;;;35.60;18.05;;;;;;;1.90;76.19;101668.09;1727327;82;25509;-58
2020/12/23 04:01:23;;;;;;;40.73;19.90;;;;;;;1.90;76.27;101670.75;1730605;82;25724;-57
2020/12/23 04:03:50;;;;;;;33.90;18.12;;;;;;;1.93;76.67;101661.36;1752256;80;25894;-57
2020/12/23 04:06:18;;;;;;;38.67;18.50;;;;;;;1.95;76.74;101663.47;1754232;81;25627;-57
2020/12/23 04:08:46;;;;;;;32.58;18.55;;;;;;;1.99;77.06;101663.77;1735970;81;27518;-57
2020/12/23 04:11:15;;;;;;;36.93;18.40;;;;;;;2.05;77.15;101666.17;1757734;81;25716;-57
2020/12/23 04:13:42;;;;;;;32.33;17.62;;;;;;;2.08;77.07;101670.05;1731516;81;25774;-57
2020/12/23 04:16:10;;;;;;;37.00;18.48;;;;;;;2.08;76.98;101671.81;1731553;82;25798;-58
2020/12/23 04:18:38;;;;;;;31.05;17.12;;;;;;;2.10;77.12;101675.28;1736035;81;25787;-57
2020/12/23 04:21:06;;;;;;;34.58;18.12;;;;;;;2.17;77.52;101671.02;1761693;81;27524;-57
2020/12/23 04:23:34;;;;;;;31.52;17.73;;;;;;;2.23;77.58;101675.23;1761474;81;25849;-57
2020/12/23 04:26:01;;;;;;;33.53;17.37;;;;;;;2.29;77.35;101678.08;1732794;81;25571;-57
2020/12/23 04:28:29;;;;;;;34.23;18.75;;;;;;;2.25;76.89;101676.48;1718502;83;25865;-56
2020/12/23 04:30:57;;;;;;;37.48;19.80;;;;;;;2.29;77.17;101679.41;1718773;83;25649;-57
2020/12/23 04:33:25;;;;;;;33.00;17.73;;;;;;;2.33;77.41;101681.88;1718887;82;28018;-57
2020/12/23 04:35:54;;;;;;;36.20;18.80;;;;;;;2.38;77.62;101684.83;1715602;82;25507;-58
2020/12/23 04:38:23;;;;;;;43.42;18.60;;;;;;;2.39;77.41;101684.76;1718707;82;25697;-57
2020/12/23 04:40:51;;;;;;;33.40;18.40;;;;;;;2.39;77.30;101680.77;1729454;82;25863;-57
2020/12/23 04:43:19;;;;;;;29.85;16.97;;;;;;;2.40;77.29;101682.51;1718763;83;26100;-57
2020/12/23 04:45:47;;;;;;;34.18;18.45;;;;;;;2.39;76.84;101690.07;1734577;82;27532;-56
2020/12/23 04:48:23;;;;;;;37.38;19.92;;;;;;;2.28;76.07;101678.55;1718490;82;26064;-57
2020/12/23 04:50:55;;;;;;;33.83;18.42;;;;;;;2.21;76.28;101676.19;1720815;82;25681;-57
2020/12/23 04:53:24;;;;;;;36.73;19.52;;;;;;;2.16;76.28;101683.00;1751795;81;25851;-57
2020/12/23 04:55:52;;;;;;;35.78;18.17;;;;;;;2.11;76.26;101687.64;1719618;81;25649;-56
2020/12/23 04:58:21;;;;;;;34.48;17.37;;;;;;;2.08;76.58;101691.72;1724498;82;26635;-57
2020/12/23 05:00:48;;;;;;;34.23;17.80;;;;;;;2.13;76.90;101697.74;1730152;82;25741;-57
2020/12/23 05:03:16;;;;;;;32.25;17.87;;;;;;;2.13;77.19;101693.28;1748042;81;25772;-57
2020/12/23 05:05:45;;;;;;;32.33;17.45;;;;;;;2.18;77.46;101687.36;1746247;82;26914;-57
2020/12/23 05:08:12;;;;;;;30.85;17.45;;;;;;;2.22;77.37;101686.77;1746106;81;25724;-56
2020/12/23 05:10:42;;;;;;;28.05;16.12;;;;;;;2.30;77.60;101688.66;1746134;82;28426;-57
2020/12/23 05:13:12;;;;;;;33.35;17.62;;;;;;;2.37;77.65;101690.63;1746077;82;26107;-56
2020/12/23 05:15:40;;;;;;;31.57;16.17;;;;;;;2.41;77.51;101685.57;1744943;82;25617;-57
2020/12/23 05:18:08;;;;;;;35.13;17.73;;;;;;;2.45;77.53;101687.19;1716547;82;25450;-57
2020/12/23 05:20:37;;;;;;;32.78;18.00;;;;;;;2.50;77.48;101687.02;1716504;82;26141;-57
2020/12/23 05:23:05;;;;;;;36.93;18.27;;;;;;;2.49;77.52;101686.12;1716574;82;28446;-57
2020/12/23 05:25:35;;;;;;;35.23;18.25;;;;;;;2.48;77.41;101679.08;1715256;82;25763;-57
2020/12/23 05:28:04;;;;;;;34.88;18.42;;;;;;;2.47;77.14;101680.48;1719018;82;25489;-57
2020/12/23 05:30:33;;;;;;;32.48;18.45;;;;;;;2.42;76.93;101676.69;1716737;82;26299;-57
2020/12/23 05:33:01;;;;;;;36.45;17.92;;;;;;;2.39;77.19;101676.80;1716394;82;25660;-57
2020/12/23 05:35:30;;;;;;;33.78;18.35;;;;;;;2.38;77.23;101679.05;1716415;83;28505;-57
2020/12/23 05:37:57;;;;;;;35.17;19.32;;;;;;;2.37;77.37;101677.34;1718042;82;26561;-57
2020/12/23 05:40:25;;;;;;;37.33;18.82;;;;;;;2.31;76.84;101681.55;1716623;82;25777;-58
2020/12/23 05:42:57;;;;;;;36.48;19.98;;;;;;;2.27;77.07;101675.49;1716323;82;25861;-58
2020/12/23 05:45:27;;;;;;;37.00;19.50;;;;;;;2.24;77.42;101680.06;1739734;82;25501;-58
2020/12/23 05:47:55;;;;;;;33.73;16.45;;;;;;;2.20;77.41;101691.27;1731452;81;27539;-58
2020/12/23 05:50:22;;;;;;;39.70;18.87;;;;;;;2.13;77.07;101685.32;1716607;82;25749;-57
2020/12/23 05:52:55;;;;;;;36.35;18.60;;;;;;;2.09;76.97;101684.17;1716502;82;25697;-58
2020/12/23 05:55:22;;;;;;;32.65;18.42;;;;;;;2.03;77.11;101689.25;1716583;82;25863;-58
2020/12/23 05:57:52;;;;;;;44.05;20.30;;;;;;;2.02;77.14;101695.47;1716799;82;25712;-58
2020/12/23 06:00:19;;;;;;;46.15;19.85;;;;;;;2.03;77.34;101696.77;1716458;82;27768;-58
2020/12/23 06:03:02;;;;;;;44.48;20.55;;;;;;;2.04;77.45;101692.31;1716269;82;26023;-58
2020/12/23 06:05:33;;;;;;;47.05;22.65;;;;;;;2.03;77.86;101694.11;1734896;81;25672;-58
2020/12/23 06:08:04;;;;;;;47.13;23.30;;;;;;;2.05;78.05;101698.02;1741941;81;25677;-58
2020/12/23 06:13:19;;;;;;;40.52;20.17;;;;;;;2.17;78.34;101696.69;1833188;78;25591;-59
2020/12/23 06:15:51;;;;;;;39.85;19.87;;;;;;;2.17;78.26;101691.37;1827582;78;26056;-58
2020/12/23 06:18:21;;;;;;;43.90;21.48;;;;;;;2.24;78.69;101699.97;1756064;81;27609;-58
2020/12/23 06:20:50;;;;;;;37.67;18.65;;;;;;;2.32;78.71;101700.53;1762868;80;25767;-59
2020/12/23 06:23:26;;;;;;;41.90;20.52;;;;;;;2.40;78.82;101701.10;1741402;80;25682;-56
2020/12/23 06:25:54;;;;;;;33.13;19.65;;;;;;;2.56;79.03;101701.81;1711473;82;25715;-57
2020/12/23 06:28:23;;;;;;;40.45;19.98;;;;;;;2.65;78.51;101703.66;1711247;83;26290;-56
2020/12/23 06:30:53;;;;;;;36.48;19.32;;;;;;;2.69;78.72;101699.55;1731733;82;27467;-56
2020/12/23 06:33:22;;;;;;;38.42;19.15;;;;;;;2.80;78.75;101699.95;1703153;82;25760;-57
2020/12/23 06:35:49;;;;;;;36.58;19.75;;;;;;;2.88;78.54;101711.13;1721410;83;25679;-57
2020/12/23 06:38:22;;;;;;;42.93;20.08;;;;;;;2.90;77.98;101724.38;1721310;83;25853;-57
2020/12/23 06:40:59;;;;;;;41.75;20.80;;;;;;;2.94;78.02;101717.99;1728830;80;26143;-56
2020/12/23 06:43:56;;;;;;;38.00;22.13;;;;;;;2.98;78.18;101716.95;1750951;81;27607;-57
2020/12/23 06:46:24;;;;;;;41.00;22.40;;;;;;;2.98;77.36;101731.57;1751280;81;25611;-59
2020/12/23 06:48:57;;;;;;;38.48;20.45;;;;;;;2.88;77.06;101728.89;1750631;81;25719;-56
2020/12/23 06:51:41;;;;;;;38.90;19.73;;;;;;;2.80;77.15;101720.77;1717774;83;25725;-57
2020/12/23 06:54:09;;;;;;;38.48;21.15;;;;;;;2.77;77.09;101718.23;1729648;81;25545;-57
2020/12/23 06:56:45;;;;;;;35.30;18.82;;;;;;;2.73;76.86;101713.98;1751052;81;28455;-57
2020/12/23 06:59:45;;;;;;;39.53;20.37;;;;;;;2.71;76.92;101715.83;1750713;81;25688;-57
2020/12/23 07:02:16;;;;;;;43.73;21.62;;;;;;;2.73;76.85;101720.63;1721918;81;25695;-57
2020/12/23 07:04:53;;;;;;;38.08;18.98;;;;;;;2.75;76.85;101723.21;1721281;83;25731;-57
2020/12/23 07:07:41;;;;;;;33.95;18.57;;;;;;;2.69;76.33;101724.31;1718101;83;25704;-57
2020/12/23 07:10:25;;;;;;;41.13;18.65;;;;;;;2.65;76.67;101720.92;1721162;83;28498;-56
2020/12/23 07:12:56;;;;;;;31.87;16.80;;;;;;;2.65;76.90;101714.72;1700913;83;25660;-57
2020/12/23 07:15:38;;;;;;;33.83;17.32;;;;;;;2.64;77.93;101705.91;1719342;83;33387;-57
2020/12/23 07:18:17;;;;;;;32.55;18.57;;;;;;;2.63;77.48;101691.37;1719059;83;26267;-57
2020/12/23 07:20:48;;;;;;;32.38;17.25;;;;;;;2.64;77.64;101693.09;1718357;83;25462;-57
2020/12/23 07:23:21;;;;;;;41.35;18.90;;;;;;;2.70;78.05;101702.58;1719039;83;27538;-57
2020/12/23 07:25:54;;;;;;;32.38;18.65;;;;;;;2.81;78.31;101692.39;1718782;83;25446;-58
2020/12/23 07:28:40;;;;;;;31.30;19.92;;;;;;;2.98;78.53;101689.89;1838056;78;25505;-59
2020/12/23 07:31:10;;;;;;;36.90;20.52;;;;;;;3.02;78.30;101693.28;1804733;79;25618;-58
2020/12/23 07:33:42;;;;;;;39.63;21.95;;;;;;;3.16;78.45;101695.84;1800261;79;27743;-58
2020/12/23 07:36:10;;;;;;;39.95;20.32;;;;;;;3.31;78.46;101701.82;1799904;79;25951;-58
2020/12/23 07:38:39;;;;;;;39.25;20.05;;;;;;;3.47;78.36;101689.17;1800240;79;25639;-58
2020/12/23 07:41:13;;;;;;;36.63;18.98;;;;;;;3.55;78.14;101689.69;1795504;78;26322;-58
2020/12/23 07:43:41;;;;;;;33.30;19.48;;;;;;;3.63;78.02;101680.05;1819547;78;25702;-58
2020/12/23 07:46:09;;;;;;;40.55;22.52;;;;;;;3.67;77.35;101675.85;1819143;78;27520;-58
2020/12/23 07:48:37;;;;;;;38.42;19.42;;;;;;;3.73;77.50;101687.54;1819121;78;26631;-58
2020/12/23 07:51:08;;;;;;;42.93;21.42;;;;;;;3.80;77.42;101690.80;1819317;78;25638;-57
2020/12/23 07:53:36;;;;;;;43.45;21.97;;;;;;;3.85;77.14;101686.59;1819167;78;25833;-58
2020/12/23 07:56:05;;;;;;;43.17;21.12;;;;;;;3.97;77.25;101680.72;1788001;78;26147;-58
2020/12/23 07:58:37;;;;;;;43.75;20.15;;;;;;;4.12;76.89;101672.94;1819166;78;27509;-56
2020/12/23 08:01:09;;;;;;;40.15;20.02;;;;;;;4.28;76.26;101684.59;1819250;78;25732;-56
2020/12/23 08:03:37;;;;;;;34.65;19.40;;;;;;;4.39;75.75;101687.61;1819436;77;25703;-57
2020/12/23 08:06:08;;;;;;;32.00;16.70;;;;;;;4.50;75.17;101690.23;1819250;78;26187;-57
2020/12/23 08:08:42;;;;;;;27.70;14.78;;;;;;;4.52;73.70;101693.70;1819298;78;25629;-56
2020/12/23 08:11:14;;;;;;;30.23;16.87;;;;;;;4.39;71.52;101704.93;1819285;78;27621;-57
2020/12/23 08:13:44;;;;;;;25.85;15.48;;;;;;;4.29;72.38;101702.78;1819216;78;25659;-57
2020/12/23 08:16:15;;;;;;;32.03;16.50;;;;;;;4.29;72.97;101710.78;1819339;78;26180;-57
2020/12/23 08:18:44;;;;;;;29.23;17.40;;;;;;;4.29;72.64;101707.63;1809334;78;25696;-56
2020/12/23 08:21:17;;;;;;;28.17;15.13;;;;;;;4.30;73.02;101702.70;1781360;80;25643;-57
2020/12/23 08:23:47;;;;;;;28.75;15.85;;;;;;;4.37;73.37;101705.95;1781594;80;28413;-57
2020/12/23 08:26:16;;;;;;;34.92;18.62;;;;;;;4.50;73.73;101695.56;1748912;80;25754;-57
2020/12/23 08:28:48;;;;;;;35.25;18.42;;;;;;;4.64;73.93;101709.55;1771345;79;25676;-56
2020/12/23 08:31:27;;;;;;;36.95;17.25;;;;;;;4.70;73.59;101716.79;1802444;79;26267;-57
2020/12/23 08:33:58;;;;;;;26.10;14.70;;;;;;;4.74;73.01;101704.63;1802367;79;25623;-57
2020/12/23 08:36:28;;;;;;;25.75;14.10;;;;;;;4.70;72.39;101698.13;1794431;79;27523;-57
2020/12/23 08:38:56;;;;;;;28.98;15.00;;;;;;;4.69;71.46;101699.06;1770360;81;25429;-57
2020/12/23 08:41:27;;;;;;;23.50;14.20;;;;;;;4.68;72.29;101698.67;1793412;78;25662;-57
2020/12/23 08:43:57;;;;;;;28.83;16.42;;;;;;;4.71;71.49;101696.31;1779388;79;26095;-57
2020/12/23 08:46:28;;;;;;;26.75;15.10;;;;;;;4.75;71.87;101688.55;1770217;81;26073;-57
2020/12/23 08:49:00;;;;;;;28.12;16.50;;;;;;;4.79;71.72;101686.13;1770172;81;28424;-57
2020/12/23 08:51:28;;;;;;;30.80;17.82;;;;;;;4.84;71.99;101689.91;1785588;78;25702;-57
2020/12/23 08:53:55;;;;;;;33.42;18.17;;;;;;;4.84;70.30;101685.42;1832245;78;25648;-56
2020/12/23 08:56:29;;;;;;;35.17;16.50;;;;;;;4.81;70.71;101682.05;1832330;78;25690;-56
2020/12/23 08:59:04;;;;;;;35.23;18.75;;;;;;;4.80;70.41;101681.20;1832416;78;25643;-56
2020/12/23 09:01:35;;;;;;;38.75;19.52;;;;;;;4.77;70.78;101677.34;1753465;81;28803;-57
2020/12/23 09:04:13;;;;;;;32.73;16.82;;;;;;;4.78;70.69;101676.41;1832079;78;25633;-57
2020/12/23 09:06:43;;;;;;;31.15;16.62;;;;;;;4.75;70.35;101669.03;1832038;78;25740;-59
2020/12/23 09:09:22;;;;;;;35.25;18.02;;;;;;;4.74;70.89;101669.97;1832341;78;25605;-57
2020/12/23 09:11:53;;;;;;;38.42;20.57;;;;;;;4.74;70.71;101661.97;1753555;81;26151;-57
2020/12/23 09:14:34;;;;;;;39.42;19.05;;;;;;;4.72;70.74;101663.84;1832260;78;28381;-57
2020/12/23 09:17:14;;;;;;;42.03;19.10;;;;;;;4.75;70.92;101658.38;1753581;81;25645;-57
2020/12/23 09:19:46;;;;;;;38.30;21.07;;;;;;;4.74;70.77;101643.31;1787218;78;25699;-57
2020/12/23 09:22:39;;;;;;;42.78;23.25;;;;;;;4.75;71.13;101633.05;1770290;81;25677;-57
2020/12/23 09:25:26;;;;;;;43.05;25.55;;;;;;;4.84;71.56;101634.77;1770051;81;25697;-57
2020/12/23 09:27:56;;;;;;;47.27;26.48;;;;;;;4.93;71.57;101634.78;1773619;79;28577;-57
2020/12/23 09:30:43;;;;;;;40.25;21.57;;;;;;;5.01;71.89;101642.41;1794441;79;25708;-57
2020/12/23 09:33:20;;;;;;;45.33;23.80;;;;;;;5.08;71.78;101634.92;1794479;79;25619;-57
2020/12/23 09:35:51;;;;;;;45.33;25.00;;;;;;;5.09;71.80;101628.66;1794545;79;25691;-57
2020/12/23 09:38:27;;;;;;;45.23;22.00;;;;;;;5.15;72.16;101632.36;1794492;79;26219;-57
2020/12/23 09:40:58;;;;;;;38.80;21.07;;;;;;;5.23;72.24;101631.48;1784669;79;27534;-59
2020/12/23 09:43:28;;;;;;;36.48;19.67;;;;;;;5.32;72.27;101627.45;1746144;81;25500;-57
2020/12/23 09:46:00;;;;;;;30.25;17.07;;;;;;;5.40;71.68;101625.23;1794432;79;25727;-57
2020/12/23 09:48:28;;;;;;;30.85;17.80;;;;;;;5.44;71.16;101625.93;1794282;79;25561;-57
2020/12/23 09:50:56;;;;;;;36.90;17.20;;;;;;;5.43;70.06;101622.41;1746108;82;25666;-57
2020/12/23 09:53:27;;;;;;;28.95;17.23;;;;;;;5.43;69.96;101617.53;1794243;79;28231;-57
2020/12/23 09:55:56;;;;;;;29.48;16.55;;;;;;;5.40;68.62;101616.38;1747944;81;25483;-57
2020/12/23 09:58:27;;;;;;;31.17;16.60;;;;;;;5.29;67.76;101613.81;1736977;82;25505;-57
2020/12/23 10:00:56;;;;;;;33.45;17.92;;;;;;;5.15;67.35;101622.53;1742227;82;26567;-57
2020/12/23 10:03:24;;;;;;;28.07;16.70;;;;;;;5.04;68.53;101622.70;1741217;81;25655;-56
2020/12/23 10:05:52;;;;;;;33.02;17.82;;;;;;;4.97;68.34;101632.36;1797553;79;27527;-56
2020/12/23 10:08:20;;;;;;;29.67;16.77;;;;;;;4.91;68.41;101624.66;1785951;79;26152;-56
2020/12/23 10:10:48;;;;;;;31.62;17.48;;;;;;;4.84;68.64;101621.44;1749892;82;26283;-57
2020/12/23 10:13:16;;;;;;;31.10;17.25;;;;;;;4.80;68.72;101619.00;1763869;79;25650;-56
2020/12/23 10:15:44;;;;;;;35.30;17.30;;;;;;;4.71;68.88;101604.35;1785642;79;26110;-56
2020/12/23 10:18:13;;;;;;;31.37;16.48;;;;;;;4.66;68.99;101597.92;1792279;79;27535;-56
2020/12/23 10:20:41;;;;;;;28.85;16.32;;;;;;;4.63;69.43;101594.07;1794356;79;26291;-56
2020/12/23 10:23:09;;;;;;;29.45;16.65;;;;;;;4.60;69.80;101592.91;1763106;80;25651;-57
2020/12/23 10:25:37;;;;;;;29.87;16.15;;;;;;;4.62;70.17;101592.34;1776437;79;25680;-57
2020/12/23 10:28:05;;;;;;;29.40;16.62;;;;;;;4.63;70.37;101590.07;1788739;79;25502;-57
2020/12/23 10:30:33;;;;;;;28.45;16.60;;;;;;;4.64;70.60;101593.13;1783035;80;27962;-56
2020/12/23 10:33:03;;;;;;;31.37;17.67;;;;;;;4.67;70.54;101594.77;1782091;80;25489;-56
2020/12/23 10:35:30;;;;;;;34.03;19.25;;;;;;;4.72;70.70;101582.55;1783266;80;25686;-57
2020/12/23 10:37:58;;;;;;;31.50;18.05;;;;;;;4.76;70.43;101575.64;1783307;80;25652;-57
2020/12/23 10:40:26;;;;;;;37.63;17.45;;;;;;;4.79;70.46;101575.98;1800833;78;25673;-56
2020/12/23 10:42:54;;;;;;;33.53;17.80;;;;;;;4.77;69.68;101568.05;1793402;79;27398;-57
2020/12/23 10:45:22;;;;;;;30.37;17.30;;;;;;;4.76;69.79;101574.80;1777913;79;25690;-57
2020/12/23 10:47:50;;;;;;;29.42;17.25;;;;;;;4.74;69.11;101566.02;1783290;80;25645;-57
2020/12/23 10:50:18;;;;;;;35.68;18.60;;;;;;;4.68;69.54;101554.73;1783140;80;25666;-57
2020/12/23 10:52:45;;;;;;;31.40;17.87;;;;;;;4.69;69.86;101544.92;1781028;79;26153;-57
2020/12/23 10:55:13;;;;;;;30.85;17.87;;;;;;;4.77;70.19;101551.20;1774924;79;27526;-57
2020/12/23 10:57:41;;;;;;;33.80;18.05;;;;;;;4.82;70.35;101547.81;1793733;79;25628;-57
2020/12/23 11:00:09;;;;;;;34.95;18.77;;;;;;;4.85;69.47;101547.67;1793715;79;25657;-57
2020/12/23 11:02:37;;;;;;;33.83;19.10;;;;;;;4.86;69.82;101534.24;1793825;79;25735;-57
2020/12/23 11:05:06;;;;;;;31.87;18.23;;;;;;;4.90;69.88;101532.77;1798356;79;26076;-58
2020/12/23 11:07:34;;;;;;;31.10;17.42;;;;;;;4.90;69.52;101532.77;1795488;79;27601;-57
2020/12/23 11:10:04;;;;;;;33.60;18.90;;;;;;;4.91;69.38;101530.48;1768435;80;25734;-57
2020/12/23 11:12:32;;;;;;;42.62;19.87;;;;;;;4.88;69.70;101538.64;1769893;80;25508;-57
2020/12/23 11:15:00;;;;;;;30.05;17.15;;;;;;;4.86;70.00;101542.24;1770258;79;26012;-57
2020/12/23 11:17:29;;;;;;;30.55;18.00;;;;;;;4.94;70.53;101547.64;1770096;81;25650;-58
2020/12/23 11:19:57;;;;;;;30.88;16.42;;;;;;;4.99;70.80;101552.28;1770125;79;27097;-57
2020/12/23 11:22:25;;;;;;;29.45;15.70;;;;;;;5.01;70.07;101556.58;1770046;81;25625;-58
2020/12/23 11:24:54;;;;;;;28.55;17.60;;;;;;;5.00;69.68;101554.85;1784441;79;25870;-57
2020/12/23 11:27:22;;;;;;;36.20;18.50;;;;;;;4.97;69.86;101551.48;1772310;80;26691;-57
2020/12/23 11:29:50;;;;;;;31.30;17.52;;;;;;;4.97;69.76;101544.37;1792815;79;26601;-57
2020/12/23 11:32:18;;;;;;;32.40;18.65;;;;;;;4.99;69.66;101540.28;1810911;79;27525;-58